CZEM

Eastmain River Airport

Code ICAO CZEM
Code IATA ZEM
Nom Eastmain River Airport
Emplacement Eastmain River, Quebec, CA
Élévation 24 pieds / 7.3 mètres
Latitude 52.22638889
Longitude -78.52250000
METAR CZEM 082100Z 08004KT 15SM BKN078 M21/M24 A3009 RMK AC6 LAST STFD OBS/NEXT 091400 UTC SLP193
Informations extras Afficher cartes et CFS
Afficher NOTAMS
Piste Longueur Largeur Surface Élévation
02 3512 ft 100 ft GRAVEL 21 ft
20 3512 ft 100 ft GRAVEL 24 ft